Time;durP1;ratioP1;P1;durP2;ratioP2;P2;SDS_P1;SDS_P2;PMS_P1;PMS_P2;Temp;Humidity;BMP_temperature;BMP_pressure;BME280_temperature;BME280_humidity;BME280_pressure;Samples;Min_cycle;Max_cycle;Signal;HPM_P1;HPM_P2
2021/06/23 00:01:18;;;;;;;18.92;5.97;;;;;;;12.95;83.15;101505.56;4970829;28;20475;-68
2021/06/23 00:03:45;;;;;;;16.83;6.07;;;;;;;12.97;82.48;101514.28;4971745;28;20452;-68
2021/06/23 00:06:10;;;;;;;;;;;;;;;12.77;82.41;101502.09;4971623;28;20050;-68
2021/06/23 00:08:35;;;;;;;23.83;5.15;;;;;;;12.87;82.37;101508.19;4970801;28;19914;-68
2021/06/23 00:11:02;;;;;;;17.17;6.60;;;;;;;12.83;82.55;101506.81;4971662;28;20468;-68
2021/06/23 00:13:31;;;;;;;;;;;;;;;12.82;82.49;101505.13;4970999;28;20131;-68
2021/06/23 00:15:57;;;;;;;21.85;5.57;;;;;;;12.82;82.26;101508.66;4970383;28;20331;-68
2021/06/23 00:18:22;;;;;;;19.95;6.55;;;;;;;12.74;82.67;101515.81;4971501;28;20058;-68
2021/06/23 00:20:47;;;;;;;31.03;6.20;;;;;;;12.63;83.49;101508.88;4970383;28;20031;-68
2021/06/23 00:23:13;;;;;;;22.30;6.60;;;;;;;12.66;83.27;101509.38;4970654;28;20434;-68
2021/06/23 00:25:38;;;;;;;24.07;6.33;;;;;;;12.61;83.64;101517.06;4971388;28;20345;-68
2021/06/23 00:28:04;;;;;;;23.50;7.40;;;;;;;12.69;83.80;101505.56;4971083;28;20410;-68
2021/06/23 00:30:29;;;;;;;16.90;6.22;;;;;;;12.81;83.63;101511.50;4954141;28;20380;-68
2021/06/23 00:33:01;;;;;;;15.23;6.07;;;;;;;12.78;83.20;101509.13;4970349;28;20077;-68
2021/06/23 00:35:26;;;;;;;19.15;7.22;;;;;;;12.83;83.25;101509.47;4970272;28;20677;-68
2021/06/23 00:37:51;;;;;;;25.70;7.30;;;;;;;12.75;83.42;101514.81;4969991;28;20041;-68
2021/06/23 00:40:17;;;;;;;23.93;7.93;;;;;;;12.79;83.57;101508.16;4971186;28;20827;-68
2021/06/23 00:42:43;;;;;;;26.67;6.57;;;;;;;12.92;82.80;101513.91;4971044;28;20038;-68
2021/06/23 00:45:12;;;;;;;16.98;6.03;;;;;;;12.83;83.47;101520.19;4954142;28;20118;-68
2021/06/23 00:47:42;;;;;;;21.75;8.02;;;;;;;12.80;83.68;101513.31;4969512;28;20038;-68
2021/06/23 00:50:09;;;;;;;25.10;7.47;;;;;;;12.78;82.73;101530.56;4954102;28;20130;-68
2021/06/23 00:52:54;;;;;;;19.65;6.43;;;;;;;12.71;83.10;101533.03;4970944;28;20170;-68
2021/06/23 00:55:33;;;;;;;17.70;5.95;;;;;;;12.76;83.21;101525.38;4970134;28;20087;-68
2021/06/23 00:57:59;;;;;;;24.57;7.97;;;;;;;12.77;83.34;101529.72;4970611;28;20418;-68
2021/06/23 01:00:28;;;;;;;17.25;6.18;;;;;;;12.75;83.42;101522.84;4970699;28;20039;-68
2021/06/23 01:02:58;;;;;;;19.25;6.47;;;;;;;12.71;83.41;101522.31;4954272;28;20084;-68
2021/06/23 01:05:25;;;;;;;21.40;6.47;;;;;;;12.66;83.39;101524.63;4969801;28;20368;-68
2021/06/23 01:07:50;;;;;;;15.10;6.93;;;;;;;12.72;83.10;101528.53;4969479;28;20039;-68
2021/06/23 01:10:16;;;;;;;20.53;7.40;;;;;;;12.71;83.62;101516.94;4953668;28;20468;-68
2021/06/23 01:12:46;;;;;;;;;;;;;;;12.71;83.86;101505.41;4970064;28;20030;-68
2021/06/23 01:15:15;;;;;;;25.20;7.80;;;;;;;12.60;83.38;101506.53;4970597;28;19921;-68
2021/06/23 01:17:41;;;;;;;18.75;7.30;;;;;;;12.60;83.62;101504.69;4969323;28;20399;-68
2021/06/23 01:20:11;;;;;;;23.77;7.68;;;;;;;12.70;83.92;101501.88;4970519;28;20115;-68
2021/06/23 01:22:39;;;;;;;31.13;7.50;;;;;;;12.71;83.63;101500.03;4969551;28;20176;-68
2021/06/23 01:25:12;;;;;;;17.60;6.30;;;;;;;12.74;84.03;101503.25;4969223;28;20043;-68
2021/06/23 01:27:40;;;;;;;28.65;7.28;;;;;;;12.74;83.54;101505.09;4969140;28;20337;-68
2021/06/23 01:30:07;;;;;;;22.23;7.40;;;;;;;12.76;84.48;101498.59;4970367;28;20027;-68
2021/06/23 01:32:46;;;;;;;25.00;7.63;;;;;;;12.75;83.96;101496.06;4969521;28;20034;-68
2021/06/23 01:35:13;;;;;;;21.00;6.57;;;;;;;12.84;84.91;101487.91;4969424;28;20069;-68
2021/06/23 01:37:39;;;;;;;26.27;6.40;;;;;;;12.79;84.90;101492.06;4969062;28;20026;-68
2021/06/23 01:40:05;;;;;;;28.97;8.70;;;;;;;12.83;84.12;101480.00;4969525;28;20041;-68
2021/06/23 01:42:33;;;;;;;25.13;8.80;;;;;;;12.75;84.60;101474.63;4969172;28;20031;-68
2021/06/23 01:45:00;;;;;;;21.10;8.70;;;;;;;12.74;84.73;101478.31;4969336;28;20039;-68
2021/06/23 01:47:26;;;;;;;24.58;6.95;;;;;;;12.70;85.12;101485.81;4968992;28;20038;-68
2021/06/23 01:49:52;;;;;;;19.27;6.85;;;;;;;12.71;85.23;101481.28;4969290;28;20039;-68
2021/06/23 01:52:20;;;;;;;23.63;6.93;;;;;;;12.75;85.06;101464.75;4953289;28;20035;-68
2021/06/23 01:54:46;;;;;;;25.08;8.35;;;;;;;12.72;85.31;101462.38;4969070;28;20459;-67
2021/06/23 01:57:13;;;;;;;27.20;8.57;;;;;;;12.71;84.70;101474.09;4969796;28;20041;-68
2021/06/23 01:59:39;;;;;;;25.50;7.05;;;;;;;12.57;85.88;101472.00;4969920;28;20102;-68
2021/06/23 02:02:33;;;;;;;31.00;9.52;;;;;;;12.60;86.25;101475.22;4969635;28;20039;-68
2021/06/23 02:05:11;;;;;;;27.67;9.88;;;;;;;12.63;85.82;101464.16;4969886;28;20042;-68
2021/06/23 02:07:46;;;;;;;28.50;8.55;;;;;;;12.59;86.01;101473.50;4968658;28;20027;-68
2021/06/23 02:10:21;;;;;;;33.35;7.53;;;;;;;12.56;86.13;101470.31;4969806;28;20038;-68
2021/06/23 02:13:28;;;;;;;30.65;9.82;;;;;;;12.50;86.24;101466.41;4968883;28;20050;-68
2021/06/23 02:16:08;;;;;;;32.80;9.93;;;;;;;12.53;86.94;101476.84;4953589;28;20043;-68
2021/06/23 02:18:36;;;;;;;33.92;9.82;;;;;;;12.52;86.46;101468.94;4968882;28;20031;-68
2021/06/23 02:21:10;;;;;;;21.90;8.43;;;;;;;12.55;86.43;101464.13;4968812;28;20375;-68
2021/06/23 02:23:43;;;;;;;20.15;7.35;;;;;;;12.61;85.82;101479.56;4953304;28;20035;-68
2021/06/23 02:26:09;;;;;;;23.25;8.90;;;;;;;12.68;86.09;101491.31;4968455;28;20049;-68
2021/06/23 02:28:37;;;;;;;32.25;9.48;;;;;;;12.65;85.86;101509.56;4969578;28;20058;-68
2021/06/23 02:31:04;;;;;;;20.55;7.40;;;;;;;12.68;86.26;101510.06;4968570;28;20044;-68
2021/06/23 02:33:39;;;;;;;28.38;9.07;;;;;;;12.64;86.51;101510.53;4968701;28;20112;-68
2021/06/23 02:36:06;;;;;;;23.13;8.27;;;;;;;12.77;86.28;101510.13;4968742;28;20507;-68
2021/06/23 02:38:35;;;;;;;26.42;7.82;;;;;;;12.84;86.61;101512.00;4971991;28;20517;-68
2021/06/23 02:41:03;;;;;;;27.48;7.93;;;;;;;12.88;86.57;101507.19;4956073;28;20104;-68
2021/06/23 02:43:30;;;;;;;26.17;8.32;;;;;;;12.92;86.45;101507.69;4972861;28;20165;-68
2021/06/23 02:46:03;;;;;;;23.27;8.38;;;;;;;12.88;85.78;101504.50;4971728;28;20049;-68
2021/06/23 02:48:28;;;;;;;40.65;10.05;;;;;;;12.94;86.15;101501.19;4955843;28;20372;-68
2021/06/23 02:51:17;;;;;;;19.75;8.65;;;;;;;12.93;85.89;101510.22;4971872;28;20579;-68
2021/06/23 02:53:44;;;;;;;23.05;8.07;;;;;;;12.94;85.89;101514.59;4971781;28;20031;-68
2021/06/23 02:56:10;;;;;;;35.78;9.80;;;;;;;12.96;85.83;101520.63;4971502;28;20066;-68
2021/06/23 02:58:48;;;;;;;32.58;8.73;;;;;;;12.97;86.04;101513.41;4972712;28;20050;-68
2021/06/23 03:01:15;;;;;;;24.75;8.75;;;;;;;12.92;86.02;101524.63;4971516;28;20026;-68
2021/06/23 03:03:45;;;;;;;28.75;9.00;;;;;;;12.90;85.95;101521.28;4971720;28;20073;-68
2021/06/23 03:06:11;;;;;;;26.88;10.38;;;;;;;12.88;85.81;101523.28;4972259;28;20082;-68
2021/06/23 03:08:38;;;;;;;27.08;8.60;;;;;;;12.87;86.27;101524.25;4971473;28;20052;-68
2021/06/23 03:11:07;;;;;;;29.52;8.75;;;;;;;12.84;86.26;101525.41;4955697;28;20690;-68
2021/06/23 03:13:39;;;;;;;17.10;8.48;;;;;;;12.87;86.17;101543.00;4956264;28;20080;-68
2021/06/23 03:16:16;;;;;;;27.73;10.32;;;;;;;12.98;86.00;101532.03;4971291;28;20038;-68
2021/06/23 03:18:41;;;;;;;24.53;7.70;;;;;;;13.03;85.69;101532.38;4955381;28;20038;-68
2021/06/23 03:21:08;;;;;;;32.27;9.90;;;;;;;12.98;85.41;101526.66;4971407;28;20069;-68
2021/06/23 03:23:37;;;;;;;29.50;8.65;;;;;;;13.00;85.89;101532.72;4972393;28;20055;-68
2021/06/23 03:26:03;;;;;;;31.00;9.93;;;;;;;12.95;85.69;101540.41;4970942;28;20099;-68
2021/06/23 03:28:29;;;;;;;29.75;9.18;;;;;;;12.97;85.70;101541.09;4971325;28;20038;-68
2021/06/23 03:30:57;;;;;;;27.20;9.05;;;;;;;13.06;85.66;101545.50;4971180;28;20071;-68
2021/06/23 03:33:23;;;;;;;46.37;10.57;;;;;;;13.06;85.34;101545.50;4955232;28;20062;-68
2021/06/23 03:36:07;;;;;;;27.02;9.48;;;;;;;13.18;85.12;101548.75;4971210;28;20436;-68
2021/06/23 03:38:33;;;;;;;26.23;9.45;;;;;;;13.09;85.07;101557.75;4971067;28;20035;-68
2021/06/23 03:40:59;;;;;;;;;;;;;;;13.18;84.96;101555.91;4971442;28;20058;-68
2021/06/23 03:43:27;;;;;;;;;;;;;;;13.18;85.28;101553.22;4971511;28;19957;-68
2021/06/23 03:45:53;;;;;;;27.88;9.68;;;;;;;13.17;85.83;101559.63;4970829;28;19921;-68
2021/06/23 03:48:20;;;;;;;25.25;8.82;;;;;;;13.19;85.49;101560.28;4971065;28;20039;-68
2021/06/23 03:50:54;;;;;;;31.45;10.90;;;;;;;13.11;85.59;101571.81;4970955;28;20068;-68
2021/06/23 03:53:19;;;;;;;25.87;10.03;;;;;;;13.23;85.79;101575.91;4970967;28;20052;-68
2021/06/23 03:55:46;;;;;;;26.70;8.70;;;;;;;13.29;85.09;101575.28;4970815;28;20613;-68
2021/06/23 03:58:12;;;;;;;26.00;8.32;;;;;;;13.30;85.21;101579.66;4954683;28;20046;-68
2021/06/23 04:00:37;;;;;;;28.30;9.57;;;;;;;13.22;84.65;101578.75;4970886;28;20035;-68
2021/06/23 04:03:22;;;;;;;28.45;10.88;;;;;;;13.22;86.05;101592.16;4971728;28;20054;-68
2021/06/23 04:06:05;;;;;;;24.23;9.23;;;;;;;13.25;85.69;101591.81;4956837;28;20406;-68
2021/06/23 04:08:31;;;;;;;37.23;10.03;;;;;;;13.32;84.69;101595.56;4971684;28;20099;-68
2021/06/23 04:10:56;;;;;;;30.50;10.80;;;;;;;13.26;85.71;101601.56;4970600;28;20065;-68
2021/06/23 04:13:22;;;;;;;25.42;9.73;;;;;;;13.41;84.99;101599.97;4954699;28;20050;-68
2021/06/23 04:15:47;;;;;;;24.13;9.93;;;;;;;13.30;84.58;101609.16;4970472;28;20035;-68
2021/06/23 04:18:12;;;;;;;33.93;9.87;;;;;;;13.38;84.85;101605.66;4970230;28;20035;-68
2021/06/23 04:20:38;;;;;;;26.53;9.50;;;;;;;13.35;85.37;101605.16;4970537;28;20066;-68
2021/06/23 04:23:14;;;;;;;31.33;10.70;;;;;;;13.34;85.52;101600.78;4971521;28;20285;-68
2021/06/23 04:25:39;;;;;;;29.23;10.02;;;;;;;13.36;85.96;101607.66;4971386;28;20031;-68
2021/06/23 04:28:05;;;;;;;23.55;9.95;;;;;;;13.52;85.04;101607.75;4971065;28;20464;-68
2021/06/23 04:30:32;;;;;;;23.60;8.95;;;;;;;13.45;84.47;101612.06;4970341;28;20043;-68
2021/06/23 04:32:57;;;;;;;23.80;10.37;;;;;;;13.39;84.47;101607.38;4970295;28;20349;-68
2021/06/23 04:35:40;;;;;;;28.45;10.63;;;;;;;13.29;85.06;101622.72;4970331;28;20053;-68
2021/06/23 04:38:05;;;;;;;32.38;10.75;;;;;;;13.36;85.42;101622.94;4971017;28;20439;-68
2021/06/23 04:40:31;;;;;;;30.85;10.73;;;;;;;13.58;84.62;101627.75;4971170;28;20107;-68
2021/06/23 04:42:57;;;;;;;25.25;9.38;;;;;;;13.68;84.30;101622.25;4954037;28;20034;-68
2021/06/23 04:45:23;;;;;;;23.57;9.57;;;;;;;13.52;84.84;101631.91;4971009;28;20414;-68
2021/06/23 04:47:59;;;;;;;26.27;10.13;;;;;;;13.69;85.05;101630.13;4970024;28;20727;-68
2021/06/23 04:50:24;;;;;;;25.80;10.27;;;;;;;13.78;83.89;101630.16;4970946;28;20290;-68
2021/06/23 04:52:59;;;;;;;29.15;10.10;;;;;;;13.93;83.08;101628.56;4970047;28;20034;-68
2021/06/23 04:55:25;;;;;;;26.88;8.88;;;;;;;13.96;82.83;101624.69;4970060;28;20042;-68
2021/06/23 04:58:00;;;;;;;29.65;10.43;;;;;;;13.70;83.56;101630.97;4969696;28;20035;-68
2021/06/23 05:00:25;;;;;;;26.77;8.80;;;;;;;13.72;83.46;101629.81;4953648;28;20116;-68
2021/06/23 05:02:52;;;;;;;23.13;8.70;;;;;;;13.71;84.15;101636.16;4969901;28;20088;-68
2021/06/23 05:05:17;;;;;;;27.77;8.83;;;;;;;13.79;83.87;101629.16;4969914;28;20042;-68
2021/06/23 05:07:42;;;;;;;30.80;9.80;;;;;;;13.73;84.00;101626.13;4970537;28;20027;-68
2021/06/23 05:10:08;;;;;;;33.60;9.60;;;;;;;13.84;83.63;101622.31;4970580;28;20035;-68
2021/06/23 05:12:34;;;;;;;29.50;9.68;;;;;;;13.76;83.25;101611.53;4970620;28;20070;-68
2021/06/23 05:14:59;;;;;;;25.30;9.53;;;;;;;13.54;83.58;101609.44;4969751;28;20078;-68
2021/06/23 05:17:25;;;;;;;26.40;9.00;;;;;;;13.58;84.41;101608.97;4970366;28;20057;-68
2021/06/23 05:19:51;;;;;;;24.88;8.98;;;;;;;13.61;85.06;101611.31;4969645;28;20074;-68
2021/06/23 05:22:16;;;;;;;32.30;10.07;;;;;;;13.62;84.34;101609.47;4969585;28;20043;-68
2021/06/23 05:24:42;;;;;;;27.63;9.27;;;;;;;13.78;84.03;101620.25;4969588;28;20620;-68
2021/06/23 05:27:09;;;;;;;30.35;9.23;;;;;;;13.88;83.31;101622.81;4970134;28;20031;-68
2021/06/23 05:29:35;;;;;;;25.48;8.80;;;;;;;14.07;82.87;101624.38;4953362;28;20503;-68
2021/06/23 05:32:00;;;;;;;31.02;10.18;;;;;;;14.03;82.80;101631.94;4970169;28;20073;-68
2021/06/23 05:34:26;;;;;;;25.95;9.10;;;;;;;14.19;82.18;101639.19;4970420;28;20047;-68
2021/06/23 05:36:51;;;;;;;34.23;10.23;;;;;;;14.27;81.81;101633.81;4969090;28;20045;-68
2021/06/23 05:39:17;;;;;;;25.70;10.23;;;;;;;14.26;81.93;101632.16;4970291;28;20360;-68
2021/06/23 05:41:42;;;;;;;31.53;10.77;;;;;;;14.15;82.17;101621.72;4953145;28;20046;-68
2021/06/23 05:44:08;;;;;;;34.77;13.30;;;;;;;13.96;82.59;101627.38;4969282;28;20034;-68
2021/06/23 05:46:34;;;;;;;28.88;9.70;;;;;;;13.99;82.92;101627.06;4969120;28;20117;-68
2021/06/23 05:48:59;;;;;;;23.77;9.00;;;;;;;14.05;83.03;101632.59;4970215;28;20057;-68
2021/06/23 05:51:25;;;;;;;39.57;9.43;;;;;;;14.20;82.95;101638.19;4970041;28;20039;-68
2021/06/23 05:53:50;;;;;;;33.17;9.00;;;;;;;14.11;82.98;101639.16;4953089;28;20062;-68
2021/06/23 05:56:15;;;;;;;33.73;10.63;;;;;;;14.17;82.87;101638.50;4969621;28;20472;-68
2021/06/23 05:58:41;;;;;;;27.57;12.33;;;;;;;14.15;82.40;101635.16;4970065;28;20038;-68
2021/06/23 06:01:06;;;;;;;30.17;10.50;;;;;;;14.22;82.82;101641.53;4968994;28;20521;-68
2021/06/23 06:03:35;;;;;;;36.25;10.73;;;;;;;14.28;82.11;101646.25;4969079;28;20106;-68
2021/06/23 06:06:02;;;;;;;31.85;11.32;;;;;;;14.41;82.34;101644.94;4968722;28;20030;-68
2021/06/23 06:08:27;;;;;;;28.48;9.50;;;;;;;14.60;81.89;101647.31;4968901;28;20039;-68
2021/06/23 06:10:53;;;;;;;22.85;9.48;;;;;;;14.49;81.80;101650.31;4968759;28;20065;-68
2021/06/23 06:13:19;;;;;;;23.25;10.02;;;;;;;14.46;81.69;101645.28;4969882;28;20027;-69
2021/06/23 06:15:44;;;;;;;26.43;9.07;;;;;;;14.50;81.37;101650.16;4968882;28;20809;-68
2021/06/23 06:18:09;;;;;;;32.23;11.43;;;;;;;14.41;81.29;101653.00;4968701;28;20046;-68
2021/06/23 06:20:35;;;;;;;34.90;10.00;;;;;;;14.46;82.12;101658.69;4968816;28;20039;-68
2021/06/23 06:23:02;;;;;;;36.05;10.15;;;;;;;14.61;81.52;101656.22;4969685;28;20031;-68
2021/06/23 06:25:27;;;;;;;37.35;11.82;;;;;;;14.66;80.44;101664.66;4969708;28;20677;-69
2021/06/23 06:27:53;;;;;;;35.20;10.48;;;;;;;14.57;80.71;101670.00;4968507;28;20046;-68
2021/06/23 06:30:21;;;;;;;32.67;11.13;;;;;;;14.50;80.04;101676.19;4969586;28;20081;-68
2021/06/23 06:32:46;;;;;;;26.20;10.25;;;;;;;14.61;79.57;101667.84;4968603;28;20038;-68
2021/06/23 06:35:12;;;;;;;28.30;11.40;;;;;;;14.50;81.15;101665.44;4969559;28;20448;-68
2021/06/23 06:37:38;;;;;;;30.38;10.88;;;;;;;14.59;81.56;101664.47;4968295;28;20163;-68
2021/06/23 06:40:04;;;;;;;29.17;10.05;;;;;;;14.64;80.74;101664.81;4969509;28;20042;-68
2021/06/23 06:42:29;;;;;;;32.13;10.52;;;;;;;14.56;81.73;101671.03;4968391;28;20039;-68
2021/06/23 06:44:55;;;;;;;26.90;10.53;;;;;;;14.60;81.07;101676.06;4968622;28;20042;-68
2021/06/23 06:47:20;;;;;;;25.88;9.05;;;;;;;14.65;79.97;101681.75;4969202;28;20046;-68
2021/06/23 06:49:45;;;;;;;21.10;8.00;;;;;;;14.66;80.38;101686.16;4969511;28;20054;-68
2021/06/23 06:52:11;;;;;;;34.70;11.30;;;;;;;14.77;80.66;101680.41;4969203;28;20039;-68
2021/06/23 06:54:36;;;;;;;28.00;8.70;;;;;;;14.63;80.60;101684.59;4952338;28;20078;-68
2021/06/23 06:57:02;;;;;;;28.47;8.27;;;;;;;14.64;81.54;101688.16;4968186;28;20034;-69
2021/06/23 06:59:29;;;;;;;30.00;9.10;;;;;;;14.70;81.61;101693.72;4968423;28;20111;-68
2021/06/23 07:01:55;;;;;;;36.15;10.40;;;;;;;14.78;80.38;101696.41;4969271;28;20039;-68
2021/06/23 07:04:20;;;;;;;30.77;10.97;;;;;;;14.57;81.19;101701.41;4968312;28;20035;-69
2021/06/23 07:06:46;;;;;;;26.10;8.50;;;;;;;14.70;81.05;101709.84;4951882;28;20381;-68
2021/06/23 07:09:13;;;;;;;25.98;8.60;;;;;;;14.82;81.38;101717.56;4968201;28;20452;-68
2021/06/23 07:11:38;;;;;;;32.53;10.95;;;;;;;14.89;81.13;101715.88;4952029;28;20043;-69
2021/06/23 07:14:04;;;;;;;29.92;9.30;;;;;;;14.84;79.82;101727.13;4969087;28;20058;-69
2021/06/23 07:16:29;;;;;;;20.70;9.60;;;;;;;14.87;79.96;101720.59;4967908;28;20039;-68
2021/06/23 07:18:55;;;;;;;24.70;9.23;;;;;;;14.81;80.00;101710.50;4969178;28;20035;-68
2021/06/23 07:21:20;;;;;;;23.77;9.67;;;;;;;14.85;81.10;101720.75;4968962;28;20447;-69
2021/06/23 07:23:48;;;;;;;19.57;9.70;;;;;;;14.70;81.20;101715.22;4970836;28;20057;-68
2021/06/23 07:26:15;;;;;;;23.10;8.90;;;;;;;14.91;81.21;101721.94;4971110;28;20041;-68
2021/06/23 07:28:48;;;;;;;31.55;9.48;;;;;;;14.92;80.71;101718.25;4972294;28;20049;-69
2021/06/23 07:31:18;;;;;;;26.85;9.05;;;;;;;14.96;79.70;101722.25;4971313;28;20034;-68
2021/06/23 07:33:52;;;;;;;28.08;9.43;;;;;;;14.80;80.54;101717.75;4972218;28;20046;-68
2021/06/23 07:36:35;;;;;;;27.00;11.07;;;;;;;14.76;80.39;101708.31;4971684;28;20077;-68
2021/06/23 07:39:05;;;;;;;26.92;8.95;;;;;;;14.83;79.98;101708.50;4972098;28;20062;-68
2021/06/23 07:41:31;;;;;;;26.35;9.85;;;;;;;14.85;79.86;101710.00;4971964;28;20100;-68
2021/06/23 07:43:56;;;;;;;22.90;8.43;;;;;;;14.81;81.66;101705.13;4971185;28;20042;-68
2021/06/23 07:46:21;;;;;;;24.27;9.67;;;;;;;14.65;82.00;101703.25;4970708;28;20043;-68
2021/06/23 07:48:50;;;;;;;30.30;9.63;;;;;;;14.83;81.65;101708.50;4971885;28;20466;-68
2021/06/23 07:51:18;;;;;;;19.80;9.45;;;;;;;14.70;82.48;101699.09;4971773;28;20101;-69
2021/06/23 08:10:18;;;;;;;38.15;10.93;;;;;;;14.97;81.39;101711.34;4970581;28;20042;-69
2021/06/23 08:12:55;;;;;;;30.17;10.18;;;;;;;15.20;80.13;101710.69;4970608;28;20496;-69
2021/06/23 08:15:22;;;;;;;25.30;10.55;;;;;;;15.26;80.48;101714.53;4971589;28;20043;-69
2021/06/23 08:17:47;;;;;;;29.20;10.02;;;;;;;15.29;79.62;101714.19;4970161;28;20337;-69
2021/06/23 08:20:13;;;;;;;35.50;10.37;;;;;;;15.30;79.24;101715.88;4971399;28;20038;-69
2021/06/23 08:22:38;;;;;;;19.23;10.05;;;;;;;15.27;80.45;101713.53;4970545;28;20407;-68
2021/06/23 08:25:04;;;;;;;21.37;9.10;;;;;;;15.34;79.48;101704.63;4954460;28;20034;-69
2021/06/23 08:27:30;;;;;;;25.50;9.18;;;;;;;15.29;79.39;101711.50;4970138;28;20161;-69
2021/06/23 08:29:55;;;;;;;27.07;9.87;;;;;;;15.14;79.26;101706.81;4970496;28;20472;-69
2021/06/23 08:32:20;;;;;;;30.40;11.10;;;;;;;15.26;79.83;101703.78;4971166;28;20039;-69
2021/06/23 08:34:46;;;;;;;27.23;8.93;;;;;;;15.30;79.40;101722.09;4970406;28;20034;-69
2021/06/23 08:37:11;;;;;;;26.33;10.23;;;;;;;15.20;79.29;101722.28;4970950;28;20357;-69
2021/06/23 08:39:36;;;;;;;26.53;9.80;;;;;;;15.37;80.06;101719.56;4970320;28;20031;-69
2021/06/23 08:42:02;;;;;;;25.50;10.30;;;;;;;15.44;80.75;101717.88;4971072;28;20027;-69
2021/06/23 08:44:28;;;;;;;30.27;9.65;;;;;;;15.45;79.24;101729.47;4971050;28;20042;-69
2021/06/23 08:46:53;;;;;;;24.90;9.47;;;;;;;15.38;78.63;101738.25;4969752;28;20034;-68
2021/06/23 08:49:19;;;;;;;28.45;10.90;;;;;;;15.37;79.78;101738.41;4969999;28;20042;-68
2021/06/23 08:51:44;;;;;;;29.53;10.07;;;;;;;15.44;79.44;101743.94;4969980;28;20483;-69
2021/06/23 08:54:11;;;;;;;30.20;10.52;;;;;;;15.33;79.85;101745.13;4970989;28;20039;-69
2021/06/23 08:56:37;;;;;;;23.27;9.27;;;;;;;15.38;80.82;101749.00;4970724;28;20121;-69
2021/06/23 08:59:03;;;;;;;;;;;;;;;15.55;80.49;101752.50;4971252;28;20053;-69
2021/06/23 09:01:29;;;;;;;;;;;;;;;15.61;79.95;101756.38;4971096;28;19917;-68
2021/06/23 09:04:02;;;;;;;;;;;;;;;15.42;80.30;101752.19;4954274;28;20040;-69
2021/06/23 09:06:45;;;;;;;21.02;10.07;;;;;;;15.29;80.75;101747.34;4969569;28;20236;-68
2021/06/23 09:09:35;;;;;;;27.60;10.45;;;;;;;15.27;80.52;101751.22;4953797;28;20046;-69
2021/06/23 09:12:04;;;;;;;33.00;10.18;;;;;;;15.63;79.15;101747.09;4979050;28;20137;-69
2021/06/23 09:14:32;;;;;;;26.27;8.93;;;;;;;16.00;77.67;101745.69;4953783;28;20049;-69
2021/06/23 09:17:07;;;;;;;21.00;7.88;;;;;;;16.01;77.64;101755.47;4969443;28;20043;-69
2021/06/23 09:19:41;;;;;;;33.58;10.30;;;;;;;15.91;77.52;101752.13;4969669;28;20036;-69
2021/06/23 09:22:35;;;;;;;20.48;9.40;;;;;;;16.18;76.75;101755.41;4969602;28;20043;-69
2021/06/23 09:25:22;;;;;;;23.95;9.57;;;;;;;16.42;76.75;101749.88;4969581;28;20455;-69
2021/06/23 09:27:50;;;;;;;24.48;10.02;;;;;;;16.32;76.69;101749.28;4969213;28;20089;-69
2021/06/23 09:30:31;;;;;;;18.33;8.18;;;;;;;16.61;76.02;101745.91;4970341;28;20125;-69
2021/06/23 09:33:17;;;;;;;20.35;8.32;;;;;;;16.77;75.27;101752.22;4953227;28;20085;-69
2021/06/23 09:35:56;;;;;;;23.45;8.48;;;;;;;16.80;74.53;101755.41;4953346;28;20429;-69
2021/06/23 09:38:39;;;;;;;21.20;9.15;;;;;;;16.67;73.48;101749.75;4970339;28;20654;-69
2021/06/23 09:41:25;;;;;;;22.35;9.70;;;;;;;16.41;74.47;101752.75;4970117;28;20092;-69
2021/06/23 09:43:53;;;;;;;21.58;8.73;;;;;;;16.42;75.19;101757.97;4969339;28;20047;-69
2021/06/23 09:46:21;;;;;;;19.33;8.38;;;;;;;16.52;74.40;101763.13;4968952;28;20057;-69
2021/06/23 09:48:48;;;;;;;15.38;8.10;;;;;;;16.87;74.58;101759.06;4969242;28;20038;-69
2021/06/23 09:51:23;;;;;;;;;;;;;;;17.39;73.92;101762.03;4969481;28;20431;-69
2021/06/23 09:53:49;;;;;;;16.90;7.47;;;;;;;17.63;71.96;101759.09;4953140;28;20362;-69
2021/06/23 09:56:30;;;;;;;12.60;6.53;;;;;;;18.21;70.60;101761.16;4969837;28;20030;-69
2021/06/23 09:58:57;;;;;;;16.17;7.60;;;;;;;18.76;65.23;101766.03;4970052;28;20042;-69
2021/06/23 10:01:23;;;;;;;;;;;;;;;19.11;64.92;101754.50;4969503;28;20034;-69
2021/06/23 10:03:53;;;;;;;;;;;;;;;19.59;64.03;101746.53;4970435;28;19914;-69
2021/06/23 10:06:30;;;;;;;12.80;6.82;;;;;;;19.86;61.26;101746.75;4968522;28;20016;-69
2021/06/23 10:09:14;;;;;;;13.90;7.38;;;;;;;20.82;59.14;101735.88;4969958;28;20031;-69
2021/06/23 10:11:41;;;;;;;16.48;6.35;;;;;;;21.45;56.91;101740.94;4952851;28;20487;-69
2021/06/23 10:14:08;;;;;;;16.60;6.97;;;;;;;20.74;58.53;101745.00;4969840;28;20045;-70
2021/06/23 10:16:35;;;;;;;14.55;6.72;;;;;;;21.08;58.12;101748.63;4968432;28;20043;-70
2021/06/23 10:19:02;;;;;;;14.40;5.70;;;;;;;20.86;58.25;101745.25;4969801;28;20443;-69
2021/06/23 10:21:30;;;;;;;15.77;6.43;;;;;;;21.90;55.98;101747.31;4968707;28;20037;-70
2021/06/23 10:23:57;;;;;;;11.43;5.80;;;;;;;21.92;55.18;101742.50;4968823;28;20043;-70
2021/06/23 10:26:25;;;;;;;12.40;6.13;;;;;;;21.08;58.25;101741.31;4968452;28;20039;-70
2021/06/23 10:28:53;;;;;;;13.60;6.60;;;;;;;21.05;58.67;101738.19;4968742;28;20038;-70
2021/06/23 10:31:21;;;;;;;10.25;5.60;;;;;;;20.50;58.49;101734.72;4969395;28;20038;-70
2021/06/23 10:33:47;;;;;;;10.27;5.55;;;;;;;20.22;58.90;101728.34;4969596;28;20076;-70
2021/06/23 10:36:13;;;;;;;15.68;5.95;;;;;;;20.46;61.81;101734.28;4968275;28;20039;-70
2021/06/23 10:38:40;;;;;;;14.80;5.88;;;;;;;20.62;60.36;101733.09;4969495;28;20031;-70
2021/06/23 10:41:06;;;;;;;11.48;6.13;;;;;;;20.70;58.46;101730.22;4969359;28;20119;-70
2021/06/23 10:43:31;;;;;;;11.23;5.70;;;;;;;21.03;59.04;101730.25;4968452;28;20129;-70
2021/06/23 10:45:57;;;;;;;16.63;6.87;;;;;;;20.70;58.35;101730.22;4952194;28;20056;-70
2021/06/23 10:48:22;;;;;;;8.57;5.43;;;;;;;21.38;55.83;101735.47;4968566;28;20110;-70
2021/06/23 10:50:48;;;;;;;14.47;6.13;;;;;;;21.08;55.62;101741.31;4969306;28;20387;-69
2021/06/23 10:53:36;;;;;;;13.18;5.13;;;;;;;21.36;57.20;101736.72;4968450;28;20035;-69
2021/06/23 10:56:04;;;;;;;13.13;5.88;;;;;;;21.18;58.30;101743.59;4978218;28;20069;-69
2021/06/23 10:58:35;;;;;;;11.45;4.90;;;;;;;20.52;60.01;101740.78;4971770;28;20050;-69
2021/06/23 11:01:11;;;;;;;11.98;5.25;;;;;;;20.71;55.95;101731.03;4971696;28;20045;-69
2021/06/23 11:04:02;;;;;;;12.82;5.15;;;;;;;20.49;57.40;101730.34;4972790;28;20118;-70
2021/06/23 11:06:38;;;;;;;11.50;5.20;;;;;;;20.26;58.69;101726.09;4972223;28;20130;-69
2021/06/23 11:09:22;;;;;;;13.95;6.50;;;;;;;20.62;59.01;101733.94;4972550;28;20042;-69
2021/06/23 11:11:47;;;;;;;10.40;5.13;;;;;;;21.53;57.21;101729.00;4972414;28;20034;-69
2021/06/23 11:14:17;;;;;;;10.73;4.67;;;;;;;22.01;52.47;101729.50;4971546;28;20042;-69
2021/06/23 11:16:43;;;;;;;9.18;4.22;;;;;;;21.31;55.33;101758.25;4972101;28;20142;-69
2021/06/23 11:19:09;;;;;;;10.60;4.93;;;;;;;21.34;53.42;101747.78;4971365;28;20038;-69
2021/06/23 11:21:35;;;;;;;10.05;4.78;;;;;;;21.10;55.59;101745.72;4971480;28;20035;-69
2021/06/23 11:24:02;;;;;;;8.82;4.57;;;;;;;21.11;56.78;101739.22;4955400;28;20046;-69
2021/06/23 11:26:27;;;;;;;9.95;5.22;;;;;;;20.80;54.84;101743.38;4971178;28;20161;-70
2021/06/23 11:28:55;;;;;;;9.40;5.33;;;;;;;20.68;56.11;101742.31;4972306;28;20158;-69
2021/06/23 11:31:21;;;;;;;10.40;4.38;;;;;;;21.46;54.51;101740.69;4971173;28;20487;-70
2021/06/23 11:33:50;;;;;;;12.48;5.38;;;;;;;22.21;51.97;101734.88;4972112;28;20475;-69
2021/06/23 11:36:18;;;;;;;18.90;6.38;;;;;;;21.44;53.58;101734.63;4971010;28;20074;-69
2021/06/23 11:38:45;;;;;;;9.95;5.38;;;;;;;21.61;51.92;101745.06;4971149;28;20046;-70
2021/06/23 11:41:11;;;;;;;9.35;4.45;;;;;;;21.63;53.05;101741.13;4972014;28;20392;-70
2021/06/23 11:43:37;;;;;;;13.23;4.63;;;;;;;20.91;55.14;101742.78;4971230;28;20047;-70